Atlantic City, NJ

10:21 AM EST on December 09, 2016 (GMT -0500)
Seaside Road Beach | | Change Station

Elev 20 ft 39.38 °N, 74.40 °W | Updated 5 minutes ago

Clear
Clear
35.6 °F
Feels Like 30 °F
N
7.2
Wind Variable Wind from North
Gusts 12.3 mph

Today
High -- | Low -- °F
--% Chance of Precip.
Yesterday
High -- | Low -- °F
Precip. -- in
Pressure 30.21 in
Visibility 10.0 miles
Clouds Clear
Windchill 30 °F
Dew Point 14 °F
Humidity 41%
Rainfall 0.00 in
Snow Depth Not available.
7:06 AM 4:34 PM
Waxing Gibbous, 74% visible
METAR KACY 091454Z 29017G22KT 10SM CLR 02/M08 A3021 RMK AO2 SLP229 T00171078 53012
Pressure 30.21 in
Visibility 10.0 miles
Clouds Clear
Windchill 30 °F
Dew Point 14 °F
Humidity 41%
Rainfall 0.00 in
Snow Depth Not available.
7:06 AM 4:34 PM
Waxing Gibbous, 74% visible
METAR KACY 091454Z 29017G22KT 10SM CLR 02/M08 A3021 RMK AO2 SLP229 T00171078 53012

10-Day Weather Forecast

Almanac

Astronomy

Dec. 09, 2016 Rise Set
Actual Time
Civil Twilight
Nautical Twilight
Astronomical Twilight
Moon
Length of Visible Light
Length of Day
Tomorrow will be .
, % of the Moon is Illuminated

Today's Extremes

State Highs State Lows

Community

WunderPhotos

Upload Photos

1,956,432 photos uploaded!

WunderBlog® & News

Nearby

Air Quality

  Air Quality AQ Index Pollutant
Not available.

Snow Depth

Station Depth Elevation

Earthquake Activity

City Distance Mag. Time & Date
Minimum magnitude displayed is 2.5.

Coastal Water Temperatures

Place Temperature

Stations

Nearby Weather Stations

Station Location Temp. Windchill Dew Point Humidity Wind Precip. Elev Updated Type
                   

Watches & Warnings

There are currently no watches in effect.